createdAt,value
2019-01-27T00:00:28.426Z,7.41
2019-01-27T00:01:28.415Z,7.36
2019-01-27T00:02:28.403Z,7.41
2019-01-27T00:03:28.416Z,7.39
2019-01-27T00:04:28.382Z,7.39
2019-01-27T00:05:28.371Z,7.36
2019-01-27T00:06:28.359Z,7.42
2019-01-27T00:07:28.350Z,7.39
2019-01-27T00:08:28.362Z,7.30
2019-01-27T00:09:28.326Z,7.24
2019-01-27T00:10:28.316Z,7.26
2019-01-27T00:11:28.311Z,7.24
2019-01-27T00:12:28.293Z,7.19
2019-01-27T00:13:28.306Z,7.08
2019-01-27T00:14:28.272Z,7.07
2019-01-27T00:15:28.260Z,7.04
2019-01-27T00:16:28.248Z,7.07
2019-01-27T00:17:28.236Z,7.04
2019-01-27T00:18:28.256Z,7.05
2019-01-27T00:19:28.216Z,7.00
2019-01-27T00:20:28.204Z,7.00
2019-01-27T00:21:28.194Z,7.08
2019-01-27T00:22:28.189Z,6.97
2019-01-27T00:23:28.195Z,6.97
2019-01-27T00:24:28.160Z,7.00
2019-01-27T00:25:28.150Z,6.99
2019-01-27T00:26:28.139Z,7.01
2019-01-27T00:27:28.125Z,6.91
2019-01-27T00:28:28.139Z,7.01
2019-01-27T00:29:28.104Z,7.05
2019-01-27T00:30:28.091Z,6.94
2019-01-27T00:31:28.081Z,7.00
2019-01-27T00:32:28.071Z,6.96
2019-01-27T00:33:28.083Z,7.04
2019-01-27T00:34:28.048Z,6.99
2019-01-27T00:35:28.037Z,6.97
2019-01-27T00:36:28.025Z,7.04
2019-01-27T00:37:28.014Z,6.97
2019-01-27T00:38:28.028Z,6.89
2019-01-27T00:39:27.993Z,6.87
2019-01-27T00:40:27.981Z,6.87
2019-01-27T00:41:28.014Z,6.91
2019-01-27T00:42:27.959Z,6.96
2019-01-27T00:43:27.973Z,6.97
2019-01-27T00:44:27.937Z,6.94
2019-01-27T00:45:27.926Z,7.04
2019-01-27T00:46:27.914Z,6.99
2019-01-27T00:47:27.904Z,6.99
2019-01-27T00:48:27.919Z,6.97
2019-01-27T00:49:27.881Z,6.97
2019-01-27T00:50:27.871Z,7.05
2019-01-27T00:51:27.866Z,6.97
2019-01-27T00:52:27.849Z,6.96
2019-01-27T00:53:27.840Z,7.04
2019-01-27T00:54:27.850Z,7.00
2019-01-27T00:55:27.815Z,6.96
2019-01-27T00:56:27.803Z,7.00
2019-01-27T00:57:27.794Z,6.97
2019-01-27T00:58:27.784Z,7.05
2019-01-27T00:59:27.796Z,6.96
2019-01-27T01:00:27.760Z,7.00
2019-01-27T01:01:27.749Z,7.04
2019-01-27T01:02:27.737Z,6.97
2019-01-27T01:03:27.729Z,7.05
2019-01-27T01:04:27.739Z,7.04
2019-01-27T01:05:27.706Z,7.01
2019-01-27T01:06:27.694Z,6.96
2019-01-27T01:07:27.682Z,6.90
2019-01-27T01:08:27.674Z,6.99
2019-01-27T01:09:27.684Z,6.90
2019-01-27T01:10:27.649Z,6.94
2019-01-27T01:11:27.637Z,6.99
2019-01-27T01:12:27.626Z,7.05
2019-01-27T01:13:27.616Z,6.94
2019-01-27T01:14:27.627Z,6.93
2019-01-27T01:15:27.593Z,6.99
2019-01-27T01:16:27.582Z,7.04
2019-01-27T01:17:27.573Z,7.00
2019-01-27T01:18:27.579Z,6.94
2019-01-27T01:19:27.576Z,6.93
2019-01-27T01:20:27.538Z,7.00
2019-01-27T01:21:27.527Z,7.04
2019-01-27T01:22:27.515Z,6.97
2019-01-27T01:23:27.505Z,6.99
2019-01-27T01:24:27.517Z,7.01
2019-01-27T01:25:27.483Z,6.99
2019-01-27T01:26:27.473Z,6.94
2019-01-27T01:27:27.462Z,7.00
2019-01-27T01:28:27.451Z,7.01
2019-01-27T01:29:27.463Z,7.05
2019-01-27T01:30:27.427Z,6.97
2019-01-27T01:31:28.110Z,6.97
2019-01-27T01:32:27.406Z,7.01
2019-01-27T01:33:27.393Z,6.99
2019-01-27T01:34:27.645Z,7.07
2019-01-27T01:35:27.371Z,6.96
2019-01-27T01:36:27.361Z,6.90
2019-01-27T01:37:27.350Z,6.99
2019-01-27T01:38:27.339Z,7.04
2019-01-27T01:39:27.351Z,7.04
2019-01-27T01:40:27.316Z,6.96
2019-01-27T01:41:27.306Z,6.99
2019-01-27T01:42:27.294Z,7.05
2019-01-27T01:43:27.284Z,6.99
2019-01-27T01:44:27.298Z,6.99
2019-01-27T01:45:27.261Z,7.04
2019-01-27T01:46:27.250Z,7.01
2019-01-27T01:47:27.238Z,6.97
2019-01-27T01:48:27.228Z,6.97
2019-01-27T01:49:27.243Z,6.99
2019-01-27T01:50:27.209Z,6.93
2019-01-27T01:51:27.195Z,6.99
2019-01-27T01:52:27.184Z,6.99
2019-01-27T01:53:27.177Z,6.96
2019-01-27T01:54:27.189Z,6.91
2019-01-27T01:55:27.150Z,6.87
2019-01-27T01:56:27.141Z,6.94
2019-01-27T01:57:27.131Z,6.87
2019-01-27T01:58:27.117Z,6.91
2019-01-27T01:59:27.131Z,6.93
2019-01-27T02:00:27.095Z,6.89
2019-01-27T02:01:27.085Z,6.94
2019-01-27T02:02:27.075Z,6.91
2019-01-27T02:03:27.063Z,6.91
2019-01-27T02:04:27.078Z,6.94
2019-01-27T02:05:27.039Z,6.93
2019-01-27T02:06:27.028Z,6.87
2019-01-27T02:07:27.016Z,6.90
2019-01-27T02:08:27.006Z,6.90
2019-01-27T02:09:27.019Z,6.91
2019-01-27T02:10:26.985Z,6.87
2019-01-27T02:11:26.972Z,6.91
2019-01-27T02:12:26.963Z,6.89
2019-01-27T02:13:26.951Z,6.96
2019-01-27T02:14:26.965Z,6.99
2019-01-27T02:15:26.928Z,6.97
2019-01-27T02:16:26.918Z,6.99
2019-01-27T02:17:26.906Z,7.09
2019-01-27T02:18:26.894Z,6.96
2019-01-27T02:19:26.910Z,7.07
2019-01-27T02:20:26.873Z,6.97
2019-01-27T02:21:26.862Z,7.07
2019-01-27T02:22:26.850Z,7.04
2019-01-27T02:23:26.840Z,7.05
2019-01-27T02:24:26.852Z,6.99
2019-01-27T02:25:26.819Z,7.00
2019-01-27T02:26:26.806Z,7.04
2019-01-27T02:27:26.799Z,7.07
2019-01-27T02:28:26.786Z,7.04
2019-01-27T02:29:26.798Z,6.87
2019-01-27T02:30:26.764Z,7.04
2019-01-27T02:31:26.754Z,7.00
2019-01-27T02:32:26.745Z,6.93
2019-01-27T02:33:26.734Z,6.90
2019-01-27T02:34:26.750Z,6.91
2019-01-27T02:35:26.714Z,6.90
2019-01-27T02:36:26.697Z,6.91
2019-01-27T02:37:26.688Z,6.89
2019-01-27T02:38:26.673Z,6.97
2019-01-27T02:39:26.664Z,6.96
2019-01-27T02:40:26.679Z,7.07
2019-01-27T02:41:26.641Z,6.96
2019-01-27T02:42:26.630Z,6.99
2019-01-27T02:43:26.620Z,6.91
2019-01-27T02:44:26.614Z,7.00
2019-01-27T02:45:26.620Z,7.04
2019-01-27T02:46:26.589Z,7.05
2019-01-27T02:47:26.574Z,7.01
2019-01-27T02:48:26.564Z,7.07
2019-01-27T02:49:26.555Z,7.05
2019-01-27T02:50:26.567Z,7.09
2019-01-27T02:51:26.532Z,7.12
2019-01-27T02:52:26.521Z,7.19
2019-01-27T02:53:26.511Z,7.19
2019-01-27T02:54:26.500Z,7.19
2019-01-27T02:55:26.514Z,7.27
2019-01-27T02:56:26.475Z,7.24
2019-01-27T02:57:26.464Z,7.29
2019-01-27T02:58:26.452Z,7.33
2019-01-27T02:59:26.444Z,7.30
2019-01-27T03:00:26.456Z,7.33
2019-01-27T03:01:26.457Z,7.30
2019-01-27T03:02:26.408Z,7.30
2019-01-27T03:03:26.397Z,7.29
2019-01-27T03:04:26.387Z,7.36
2019-01-27T03:05:26.402Z,7.37
2019-01-27T03:06:26.367Z,7.41
2019-01-27T03:07:26.352Z,7.42
2019-01-27T03:08:26.342Z,7.44
2019-01-27T03:09:26.331Z,7.44
2019-01-27T03:10:26.351Z,7.44
2019-01-27T03:11:26.309Z,7.37
2019-01-27T03:12:26.297Z,7.36
2019-01-27T03:13:26.288Z,7.41
2019-01-27T03:14:26.277Z,7.44
2019-01-27T03:15:26.291Z,7.45
2019-01-27T03:16:26.253Z,7.50
2019-01-27T03:17:26.241Z,7.48
2019-01-27T03:18:26.232Z,7.51
2019-01-27T03:19:26.225Z,7.50
2019-01-27T03:20:26.233Z,7.47
2019-01-27T03:21:26.198Z,7.41
2019-01-27T03:22:26.191Z,7.48
2019-01-27T03:23:26.175Z,7.45
2019-01-27T03:24:26.173Z,7.36
2019-01-27T03:25:26.181Z,7.41
2019-01-27T03:26:26.141Z,7.37
2019-01-27T03:27:26.134Z,7.41
2019-01-27T03:28:26.120Z,7.42
2019-01-27T03:29:26.108Z,7.47
2019-01-27T03:30:26.136Z,7.48
2019-01-27T03:31:26.088Z,7.41
2019-01-27T03:32:26.079Z,7.47
2019-01-27T03:33:26.064Z,7.37
2019-01-27T03:34:26.053Z,7.39
2019-01-27T03:35:26.072Z,7.37
2019-01-27T03:36:26.043Z,7.41
2019-01-27T03:37:26.021Z,7.37
2019-01-27T03:38:26.010Z,7.37
2019-01-27T03:39:25.997Z,7.48
2019-01-27T03:40:26.017Z,7.36
2019-01-27T03:41:25.977Z,7.39
2019-01-27T03:42:25.966Z,7.39
2019-01-27T03:43:25.953Z,7.39
2019-01-27T03:44:25.943Z,7.42
2019-01-27T03:45:25.956Z,7.36
2019-01-27T03:46:25.922Z,7.39
2019-01-27T03:47:25.908Z,7.39
2019-01-27T03:48:25.898Z,7.42
2019-01-27T03:49:25.893Z,7.32
2019-01-27T03:50:25.901Z,7.41
2019-01-27T03:51:25.867Z,7.36
2019-01-27T03:52:25.854Z,7.36
2019-01-27T03:53:25.843Z,7.41
2019-01-27T03:54:25.838Z,7.39
2019-01-27T03:55:25.845Z,7.44
2019-01-27T03:56:25.808Z,7.41
2019-01-27T03:57:25.802Z,7.41
2019-01-27T03:58:25.790Z,7.44
2019-01-27T03:59:25.777Z,7.41
2019-01-27T04:00:25.789Z,7.29
2019-01-27T04:01:25.754Z,7.41
2019-01-27T04:02:25.761Z,7.39
2019-01-27T04:03:25.733Z,7.42
2019-01-27T04:04:25.722Z,7.41
2019-01-27T04:05:25.736Z,7.41
2019-01-27T04:06:25.698Z,7.41
2019-01-27T04:07:25.688Z,7.45
2019-01-27T04:08:26.430Z,7.45
2019-01-27T04:09:25.664Z,7.44
2019-01-27T04:10:25.697Z,7.44
2019-01-27T04:11:25.644Z,7.44
2019-01-27T04:12:25.632Z,7.39
2019-01-27T04:13:25.623Z,7.44
2019-01-27T04:14:25.612Z,7.36
2019-01-27T04:15:25.625Z,7.29
2019-01-27T04:16:25.601Z,7.27
2019-01-27T04:17:25.577Z,7.24
2019-01-27T04:18:25.579Z,7.29
2019-01-27T04:19:25.558Z,7.19
2019-01-27T04:20:25.556Z,7.16
2019-01-27T04:21:25.558Z,7.24
2019-01-27T04:22:25.524Z,7.19
2019-01-27T04:23:25.510Z,7.14
2019-01-27T04:24:25.497Z,7.18
2019-01-27T04:25:25.490Z,7.15
2019-01-27T04:26:25.500Z,7.11
2019-01-27T04:27:25.464Z,7.14
2019-01-27T04:28:25.456Z,7.14
2019-01-27T04:29:25.443Z,7.19
2019-01-27T04:30:25.435Z,7.09
2019-01-27T04:31:25.445Z,7.15
2019-01-27T04:32:25.409Z,7.16
2019-01-27T04:33:25.399Z,7.08
2019-01-27T04:34:25.392Z,7.09
2019-01-27T04:35:25.381Z,7.05
2019-01-27T04:36:25.391Z,7.05
2019-01-27T04:37:25.364Z,7.07
2019-01-27T04:38:25.342Z,7.01
2019-01-27T04:39:25.341Z,7.05
2019-01-27T04:40:25.323Z,7.05
2019-01-27T04:41:25.336Z,6.93
2019-01-27T04:42:25.304Z,6.96
2019-01-27T04:43:25.287Z,6.91
2019-01-27T04:44:25.281Z,7.04
2019-01-27T04:45:25.266Z,7.01
2019-01-27T04:46:25.279Z,7.01
2019-01-27T04:47:25.246Z,7.01
2019-01-27T04:48:25.231Z,6.93
2019-01-27T04:49:25.222Z,6.96
2019-01-27T04:50:25.209Z,6.89
2019-01-27T04:51:25.223Z,6.94
2019-01-27T04:52:25.190Z,6.90
2019-01-27T04:53:25.180Z,6.83
2019-01-27T04:54:25.166Z,6.81
2019-01-27T04:55:25.156Z,6.82
2019-01-27T04:56:25.167Z,6.87
2019-01-27T04:57:25.132Z,6.89
2019-01-27T04:58:25.122Z,6.90
2019-01-27T04:59:25.110Z,6.86
2019-01-27T05:00:25.100Z,6.89
2019-01-27T05:01:25.114Z,6.87
2019-01-27T05:02:25.077Z,6.86
2019-01-27T05:03:25.068Z,6.87
2019-01-27T05:04:25.055Z,6.89
2019-01-27T05:05:25.043Z,6.86
2019-01-27T05:06:25.058Z,6.90
2019-01-27T05:07:25.023Z,6.90
2019-01-27T05:08:25.011Z,6.86
2019-01-27T05:09:24.998Z,6.89
2019-01-27T05:10:24.990Z,6.91
2019-01-27T05:11:25.007Z,6.87
2019-01-27T05:12:24.966Z,6.89
2019-01-27T05:13:24.955Z,6.83
2019-01-27T05:14:24.949Z,6.82
2019-01-27T05:15:24.938Z,6.87
2019-01-27T05:16:24.948Z,6.90
2019-01-27T05:17:24.912Z,6.94
2019-01-27T05:18:24.901Z,6.87
2019-01-27T05:19:24.890Z,6.89
2019-01-27T05:20:24.879Z,6.89
2019-01-27T05:21:24.893Z,6.89
2019-01-27T05:22:24.856Z,6.82
2019-01-27T05:23:24.845Z,6.86
2019-01-27T05:24:24.834Z,6.90
2019-01-27T05:25:24.823Z,6.86
2019-01-27T05:26:24.836Z,6.90
2019-01-27T05:27:25.432Z,6.99
2019-01-27T05:28:24.792Z,6.93
2019-01-27T05:29:24.779Z,6.86
2019-01-27T05:30:24.772Z,6.91
2019-01-27T05:31:24.781Z,6.91
2019-01-27T05:32:24.749Z,6.91
2019-01-27T05:33:24.733Z,6.90
2019-01-27T05:34:24.723Z,6.97
2019-01-27T05:35:24.712Z,6.86
2019-01-27T05:36:24.726Z,6.89
2019-01-27T05:37:24.691Z,6.86
2019-01-27T05:38:24.685Z,6.76
2019-01-27T05:39:24.668Z,6.82
2019-01-27T05:40:24.656Z,6.79
2019-01-27T05:41:24.670Z,6.79
2019-01-27T05:42:24.635Z,6.73
2019-01-27T05:43:24.626Z,6.75
2019-01-27T05:44:24.612Z,6.71
2019-01-27T05:45:24.601Z,6.69
2019-01-27T05:46:24.612Z,6.71
2019-01-27T05:47:24.580Z,6.72
2019-01-27T05:48:24.568Z,6.75
2019-01-27T05:49:24.555Z,6.72
2019-01-27T05:50:24.548Z,6.75
2019-01-27T05:51:24.558Z,6.75
2019-01-27T05:52:24.523Z,6.71
2019-01-27T05:53:24.513Z,6.72
2019-01-27T05:54:24.508Z,6.72
2019-01-27T05:55:24.490Z,6.72
2019-01-27T05:56:24.503Z,6.68
2019-01-27T05:57:24.469Z,6.72
2019-01-27T05:58:24.455Z,6.69
2019-01-27T05:59:24.444Z,6.71
2019-01-27T06:00:24.434Z,6.79
2019-01-27T06:01:24.424Z,6.81
2019-01-27T06:02:24.435Z,6.82
2019-01-27T06:03:24.403Z,6.83
2019-01-27T06:04:24.388Z,6.86
2019-01-27T06:05:24.378Z,6.78
2019-01-27T06:06:24.368Z,6.73
2019-01-27T06:07:24.378Z,6.78
2019-01-27T06:08:24.343Z,6.72
2019-01-27T06:09:24.332Z,6.72
2019-01-27T06:10:24.320Z,6.68
2019-01-27T06:11:24.310Z,6.72
2019-01-27T06:12:24.328Z,6.72
2019-01-27T06:13:24.287Z,6.64
2019-01-27T06:14:24.274Z,6.64
2019-01-27T06:15:24.265Z,6.68
2019-01-27T06:16:24.264Z,6.69
2019-01-27T06:17:24.266Z,6.73
2019-01-27T06:18:24.230Z,6.63
2019-01-27T06:19:24.262Z,6.65
2019-01-27T06:20:24.208Z,6.71
2019-01-27T06:21:24.201Z,6.68
2019-01-27T06:22:24.210Z,6.69
2019-01-27T06:23:24.179Z,6.71
2019-01-27T06:24:24.169Z,6.63
2019-01-27T06:25:26.333Z,6.57
2019-01-27T06:26:24.143Z,6.61
2019-01-27T06:27:24.156Z,6.60
2019-01-27T06:28:24.121Z,6.64
2019-01-27T06:29:24.109Z,6.54
2019-01-27T06:30:24.099Z,6.63
2019-01-27T06:31:24.087Z,6.63
2019-01-27T06:32:24.102Z,6.55
2019-01-27T06:33:24.070Z,6.60
2019-01-27T06:34:24.061Z,6.61
2019-01-27T06:35:24.043Z,6.64
2019-01-27T06:36:24.033Z,6.68
2019-01-27T06:37:24.950Z,6.64
2019-01-27T06:38:24.009Z,6.63
2019-01-27T06:39:24.013Z,6.60
2019-01-27T06:40:23.988Z,6.64
2019-01-27T06:41:23.977Z,6.68
2019-01-27T06:42:23.991Z,6.53
2019-01-27T06:43:23.955Z,6.55
2019-01-27T06:44:23.948Z,6.51
2019-01-27T06:45:23.932Z,6.51
2019-01-27T06:46:25.427Z,6.51
2019-01-27T06:47:23.935Z,6.58
2019-01-27T06:48:23.899Z,6.51
2019-01-27T06:49:23.890Z,6.51
2019-01-27T06:50:23.875Z,6.48
2019-01-27T06:51:23.865Z,6.46
2019-01-27T06:52:23.879Z,6.48
2019-01-27T06:53:23.843Z,6.43
2019-01-27T06:54:23.831Z,6.53
2019-01-27T06:55:23.821Z,6.48
2019-01-27T06:56:23.808Z,6.53
2019-01-27T06:57:23.824Z,6.48
2019-01-27T06:58:23.788Z,6.58
2019-01-27T06:59:23.776Z,6.43
2019-01-27T07:00:23.766Z,6.43
2019-01-27T07:01:23.753Z,6.48
2019-01-27T07:02:29.541Z,6.50
2019-01-27T07:03:24.732Z,6.53
2019-01-27T07:04:23.721Z,6.55
2019-01-27T07:05:23.708Z,6.54
2019-01-27T07:06:23.699Z,6.48
2019-01-27T07:07:23.711Z,6.55
2019-01-27T07:08:23.677Z,6.57
2019-01-27T07:09:23.667Z,6.61
2019-01-27T07:10:23.654Z,6.53
2019-01-27T07:11:23.642Z,6.63
2019-01-27T07:12:23.655Z,6.60
2019-01-27T07:13:23.620Z,6.65
2019-01-27T07:14:23.619Z,6.72
2019-01-27T07:15:23.600Z,6.72
2019-01-27T07:16:23.587Z,6.71
2019-01-27T07:17:23.600Z,6.68
2019-01-27T07:18:23.565Z,6.71
2019-01-27T07:19:23.556Z,6.73
2019-01-27T07:20:23.543Z,6.69
2019-01-27T07:21:23.533Z,6.71
2019-01-27T07:22:23.545Z,6.73
2019-01-27T07:23:23.510Z,6.75
2019-01-27T07:24:23.500Z,6.68
2019-01-27T07:25:23.487Z,6.71
2019-01-27T07:26:23.477Z,6.75
2019-01-27T07:27:23.492Z,6.71
2019-01-27T07:28:23.457Z,6.72
2019-01-27T07:29:23.444Z,6.75
2019-01-27T07:30:23.433Z,6.69
2019-01-27T07:31:23.420Z,6.73
2019-01-27T07:32:23.437Z,6.76
2019-01-27T07:33:23.400Z,6.73
2019-01-27T07:34:23.388Z,6.68
2019-01-27T07:35:23.377Z,6.71
2019-01-27T07:36:23.369Z,6.65
2019-01-27T07:37:23.382Z,6.64
2019-01-27T07:38:23.344Z,6.68
2019-01-27T07:39:23.332Z,6.69
2019-01-27T07:40:23.322Z,6.65
2019-01-27T07:41:23.313Z,6.58
2019-01-27T07:42:23.302Z,6.71
2019-01-27T07:43:23.311Z,6.65
2019-01-27T07:44:23.277Z,6.69
2019-01-27T07:45:23.267Z,6.65
2019-01-27T07:46:23.259Z,6.68
2019-01-27T07:47:23.247Z,6.72
2019-01-27T07:48:23.258Z,6.73
2019-01-27T07:49:23.223Z,6.65
2019-01-27T07:50:23.215Z,6.68
2019-01-27T07:51:23.203Z,6.69
2019-01-27T07:52:23.191Z,6.69
2019-01-27T07:53:23.203Z,6.73
2019-01-27T07:54:23.169Z,6.72
2019-01-27T07:55:23.157Z,6.78
2019-01-27T07:56:23.147Z,6.90
2019-01-27T07:57:23.137Z,6.90
2019-01-27T07:58:23.146Z,6.93
2019-01-27T07:59:23.112Z,6.99
2019-01-27T08:00:23.102Z,7.01
2019-01-27T08:01:23.090Z,7.01
2019-01-27T08:02:23.081Z,6.93
2019-01-27T08:03:23.094Z,6.94
2019-01-27T08:04:23.057Z,6.99
2019-01-27T08:05:23.046Z,7.04
2019-01-27T08:06:23.037Z,7.01
2019-01-27T08:07:23.024Z,7.04
2019-01-27T08:08:23.036Z,6.93
2019-01-27T08:09:23.002Z,7.05
2019-01-27T08:10:22.992Z,7.01
2019-01-27T08:11:22.980Z,7.01
2019-01-27T08:12:22.969Z,7.07
2019-01-27T08:13:22.982Z,7.05
2019-01-27T08:14:22.951Z,7.07
2019-01-27T08:15:22.934Z,7.05
2019-01-27T08:16:22.924Z,7.05
2019-01-27T08:17:22.914Z,6.99
2019-01-27T08:18:22.927Z,7.01
2019-01-27T08:19:22.890Z,6.97
2019-01-27T08:20:22.881Z,7.08
2019-01-27T08:21:22.869Z,7.08
2019-01-27T08:22:22.875Z,7.04
2019-01-27T08:23:22.871Z,7.00
2019-01-27T08:24:22.835Z,6.99
2019-01-27T08:25:22.828Z,7.01
2019-01-27T08:26:22.814Z,7.01
2019-01-27T08:27:22.804Z,7.01
2019-01-27T08:28:22.817Z,7.04
2019-01-27T08:29:22.782Z,7.05
2019-01-27T08:30:22.768Z,7.04
2019-01-27T08:31:22.759Z,7.05
2019-01-27T08:32:22.748Z,7.09
2019-01-27T08:33:22.761Z,7.04
2019-01-27T08:34:22.726Z,7.15
2019-01-27T08:35:22.713Z,7.12
2019-01-27T08:36:22.704Z,7.16
2019-01-27T08:37:22.695Z,7.12
2019-01-27T08:38:22.704Z,7.19
2019-01-27T08:39:22.669Z,7.14
2019-01-27T08:40:22.658Z,7.19
2019-01-27T08:41:22.662Z,7.12
2019-01-27T08:42:22.635Z,7.16
2019-01-27T08:43:22.648Z,7.27
2019-01-27T08:44:22.617Z,7.16
2019-01-27T08:45:22.603Z,7.15
2019-01-27T08:46:22.592Z,7.26
2019-01-27T08:47:22.582Z,7.29
2019-01-27T08:48:22.593Z,7.32
2019-01-27T08:49:22.559Z,7.47
2019-01-27T08:50:22.547Z,7.37
2019-01-27T08:51:22.536Z,7.37
2019-01-27T08:52:22.524Z,7.50
2019-01-27T08:53:22.537Z,7.58
2019-01-27T08:54:22.504Z,7.58
2019-01-27T08:55:22.492Z,7.60
2019-01-27T08:56:22.480Z,7.58
2019-01-27T08:57:22.471Z,7.60
2019-01-27T08:58:22.482Z,7.62
2019-01-27T08:59:22.446Z,7.76
2019-01-27T09:00:22.437Z,7.77
2019-01-27T09:01:22.424Z,7.67
2019-01-27T09:02:22.413Z,7.84
2019-01-27T09:03:22.427Z,7.82
2019-01-27T09:04:22.391Z,7.76
2019-01-27T09:05:22.380Z,7.86
2019-01-27T09:06:22.370Z,7.88
2019-01-27T09:07:22.359Z,7.88
2019-01-27T09:08:22.371Z,7.85
2019-01-27T09:09:22.336Z,7.91
2019-01-27T09:10:22.326Z,7.94
2019-01-27T09:11:22.313Z,7.96
2019-01-27T09:12:22.303Z,7.99
2019-01-27T09:13:22.315Z,7.92
2019-01-27T09:14:22.280Z,7.96
2019-01-27T09:15:22.269Z,8.00
2019-01-27T09:16:22.259Z,7.99
2019-01-27T09:17:22.250Z,7.96
2019-01-27T09:18:22.261Z,7.95
2019-01-27T09:19:22.229Z,7.99
2019-01-27T09:20:22.215Z,8.06
2019-01-27T09:21:22.203Z,7.92
2019-01-27T09:22:22.192Z,8.00
2019-01-27T09:23:22.219Z,8.03
2019-01-27T09:24:22.170Z,8.00
2019-01-27T09:25:22.158Z,8.07
2019-01-27T09:26:22.147Z,7.99
2019-01-27T09:27:22.135Z,8.00
2019-01-27T09:28:22.129Z,8.06
2019-01-27T09:29:22.137Z,7.94
2019-01-27T09:30:22.103Z,8.06
2019-01-27T09:31:22.091Z,8.06
2019-01-27T09:32:22.080Z,8.00
2019-01-27T09:33:22.071Z,8.03
2019-01-27T09:34:22.082Z,8.06
2019-01-27T09:35:22.047Z,8.07
2019-01-27T09:36:22.036Z,7.96
2019-01-27T09:37:22.028Z,8.00
2019-01-27T09:38:22.020Z,8.07
2019-01-27T09:39:22.026Z,8.14
2019-01-27T09:40:21.990Z,8.04
2019-01-27T09:41:21.979Z,7.99
2019-01-27T09:42:21.969Z,8.09
2019-01-27T09:43:21.960Z,8.12
2019-01-27T09:44:21.973Z,8.18
2019-01-27T09:45:21.935Z,8.09
2019-01-27T09:46:21.925Z,7.99
2019-01-27T09:47:21.912Z,8.09
2019-01-27T09:48:21.905Z,8.10
2019-01-27T09:49:21.917Z,8.06
2019-01-27T09:50:21.879Z,8.17
2019-01-27T09:51:21.869Z,8.18
2019-01-27T09:52:21.859Z,8.20
2019-01-27T09:53:21.848Z,8.17
2019-01-27T09:54:21.859Z,8.17
2019-01-27T09:55:21.826Z,8.17
2019-01-27T09:56:21.814Z,8.18
2019-01-27T09:57:21.803Z,8.14
2019-01-27T09:58:21.790Z,8.21
2019-01-27T09:59:21.804Z,8.18
2019-01-27T10:00:21.768Z,8.21
2019-01-27T10:01:21.757Z,8.21
2019-01-27T10:02:21.746Z,8.17
2019-01-27T10:03:21.735Z,8.17
2019-01-27T10:04:21.749Z,8.17
2019-01-27T10:05:21.712Z,8.13
2019-01-27T10:06:21.703Z,8.18
2019-01-27T10:07:21.692Z,8.20
2019-01-27T10:08:21.680Z,8.21
2019-01-27T10:09:21.693Z,8.24
2019-01-27T10:10:21.657Z,8.21
2019-01-27T10:11:26.533Z,8.18
2019-01-27T10:12:22.633Z,8.20
2019-01-27T10:13:21.624Z,8.24
2019-01-27T10:14:21.637Z,8.21
2019-01-27T10:15:21.603Z,8.22
2019-01-27T10:16:21.591Z,8.24
2019-01-27T10:17:21.578Z,8.31
2019-01-27T10:18:21.569Z,8.32
2019-01-27T10:19:21.580Z,8.29
2019-01-27T10:20:21.545Z,8.28
2019-01-27T10:21:21.535Z,8.31
2019-01-27T10:22:21.523Z,8.25
2019-01-27T10:23:21.512Z,8.29
2019-01-27T10:24:21.529Z,8.28
2019-01-27T10:25:21.490Z,8.29
2019-01-27T10:26:21.479Z,8.25
2019-01-27T10:27:21.467Z,8.24
2019-01-27T10:28:21.463Z,8.22
2019-01-27T10:29:21.469Z,8.28
2019-01-27T10:30:21.435Z,8.24
2019-01-27T10:31:21.426Z,8.27
2019-01-27T10:32:21.412Z,8.27
2019-01-27T10:33:21.403Z,8.20
2019-01-27T10:34:21.413Z,8.25
2019-01-27T10:35:21.379Z,8.28
2019-01-27T10:36:21.366Z,8.20
2019-01-27T10:37:21.356Z,8.25
2019-01-27T10:38:21.345Z,8.22
2019-01-27T10:39:21.362Z,8.20
2019-01-27T10:40:21.322Z,8.18
2019-01-27T10:41:21.311Z,8.25
2019-01-27T10:42:21.310Z,8.24
2019-01-27T10:43:21.291Z,8.20
2019-01-27T10:44:21.302Z,8.18
2019-01-27T10:45:21.267Z,8.21
2019-01-27T10:46:21.262Z,8.21
2019-01-27T10:47:21.245Z,8.18
2019-01-27T10:48:21.242Z,8.20
2019-01-27T10:49:21.248Z,8.21
2019-01-27T10:50:21.210Z,8.18
2019-01-27T10:51:21.204Z,8.21
2019-01-27T10:52:21.190Z,8.17
2019-01-27T10:53:21.225Z,8.25
2019-01-27T10:54:21.190Z,8.18
2019-01-27T10:55:21.156Z,8.21
2019-01-27T10:56:21.148Z,8.14
2019-01-27T10:57:21.133Z,8.25
2019-01-27T10:58:21.127Z,8.25
2019-01-27T10:59:21.136Z,8.17
2019-01-27T11:00:21.102Z,8.22
2019-01-27T11:01:21.088Z,8.27
2019-01-27T11:02:21.078Z,8.21
2019-01-27T11:03:21.068Z,8.24
2019-01-27T11:04:21.088Z,8.20
2019-01-27T11:05:21.068Z,8.27
2019-01-27T11:06:21.033Z,8.27
2019-01-27T11:07:21.020Z,8.36
2019-01-27T11:08:21.011Z,8.31
2019-01-27T11:09:21.006Z,8.28
2019-01-27T11:10:21.019Z,8.31
2019-01-27T11:11:20.976Z,8.32
2019-01-27T11:12:20.967Z,8.31
2019-01-27T11:13:20.955Z,8.37
2019-01-27T11:14:20.947Z,8.40
2019-01-27T11:15:20.957Z,8.37
2019-01-27T11:16:20.921Z,8.39
2019-01-27T11:17:20.909Z,8.43
2019-01-27T11:18:20.902Z,8.37
2019-01-27T11:19:20.889Z,8.40
2019-01-27T11:20:20.901Z,8.39
2019-01-27T11:21:20.868Z,8.37
2019-01-27T11:22:20.855Z,8.43
2019-01-27T11:23:20.845Z,8.42
2019-01-27T11:24:20.831Z,8.42
2019-01-27T11:25:20.848Z,8.43
2019-01-27T11:26:20.812Z,8.42
2019-01-27T11:27:20.799Z,8.40
2019-01-27T11:28:20.797Z,8.42
2019-01-27T11:29:20.777Z,8.37
2019-01-27T11:30:20.788Z,8.45
2019-01-27T11:31:20.756Z,8.43
2019-01-27T11:32:20.744Z,8.40
2019-01-27T11:33:20.734Z,8.40
2019-01-27T11:34:20.720Z,8.40
2019-01-27T11:35:20.735Z,8.46
2019-01-27T11:36:20.700Z,8.40
2019-01-27T11:37:20.688Z,8.45
2019-01-27T11:38:20.682Z,8.49
2019-01-27T11:39:20.665Z,8.45
2019-01-27T11:40:20.684Z,8.40
2019-01-27T11:41:20.644Z,8.45
2019-01-27T11:42:20.631Z,8.46
2019-01-27T11:43:20.619Z,8.45
2019-01-27T11:44:20.609Z,8.42
2019-01-27T11:45:20.627Z,8.42
2019-01-27T11:46:20.594Z,8.43
2019-01-27T11:47:20.583Z,8.42
2019-01-27T11:48:20.564Z,8.42
2019-01-27T11:49:20.561Z,8.40
2019-01-27T11:50:20.567Z,8.47
2019-01-27T11:51:20.536Z,8.45
2019-01-27T11:52:20.524Z,8.46
2019-01-27T11:53:20.511Z,8.47
2019-01-27T11:54:20.500Z,8.52
2019-01-27T11:55:20.511Z,8.46
2019-01-27T11:56:20.514Z,8.55
2019-01-27T11:57:20.464Z,8.55
2019-01-27T11:58:20.454Z,8.50
2019-01-27T11:59:20.441Z,8.57
2019-01-27T12:00:20.456Z,8.49
2019-01-27T12:01:20.422Z,8.52
2019-01-27T12:02:20.410Z,8.57
2019-01-27T12:03:20.398Z,8.61
2019-01-27T12:04:20.386Z,8.57
2019-01-27T12:05:20.401Z,8.61
2019-01-27T12:06:20.363Z,8.65
2019-01-27T12:07:20.353Z,8.61
2019-01-27T12:08:20.341Z,8.57
2019-01-27T12:09:20.331Z,8.64
2019-01-27T12:10:20.349Z,8.70
2019-01-27T12:11:20.307Z,8.73
2019-01-27T12:12:20.300Z,8.73
2019-01-27T12:13:20.287Z,8.79
2019-01-27T12:14:20.274Z,8.75
2019-01-27T12:15:20.287Z,8.70
2019-01-27T12:16:20.253Z,8.76
2019-01-27T12:17:20.241Z,8.80
2019-01-27T12:18:20.230Z,8.79
2019-01-27T12:19:20.219Z,8.71
2019-01-27T12:20:20.234Z,8.79
2019-01-27T12:21:20.198Z,8.75
2019-01-27T12:22:20.185Z,8.76
2019-01-27T12:23:20.180Z,8.70
2019-01-27T12:24:20.162Z,8.70
2019-01-27T12:25:20.178Z,8.60
2019-01-27T12:26:20.140Z,8.68
2019-01-27T12:27:20.131Z,8.61
2019-01-27T12:28:20.118Z,8.57
2019-01-27T12:29:20.106Z,8.60
2019-01-27T12:30:20.122Z,8.47
2019-01-27T12:31:20.088Z,8.50
2019-01-27T12:32:20.077Z,8.55
2019-01-27T12:33:20.065Z,8.42
2019-01-27T12:34:20.052Z,8.45
2019-01-27T12:35:20.067Z,8.46
2019-01-27T12:36:20.030Z,8.45
2019-01-27T12:37:20.021Z,8.39
2019-01-27T12:38:20.007Z,8.28
2019-01-27T12:39:20.001Z,8.40
2019-01-27T12:40:20.010Z,8.42
2019-01-27T12:41:19.975Z,8.40
2019-01-27T12:42:19.964Z,8.42
2019-01-27T12:43:19.951Z,8.43
2019-01-27T12:44:19.949Z,8.49
2019-01-27T12:45:19.935Z,8.54
2019-01-27T12:46:19.942Z,8.57
2019-01-27T12:47:19.909Z,8.61
2019-01-27T12:48:19.896Z,8.64
2019-01-27T12:49:19.884Z,8.65
2019-01-27T12:50:19.875Z,8.76
2019-01-27T12:51:19.886Z,8.71
2019-01-27T12:52:19.851Z,8.75
2019-01-27T12:53:19.839Z,8.93
2019-01-27T12:54:19.827Z,8.85
2019-01-27T12:55:19.830Z,8.93
2019-01-27T12:56:19.829Z,8.94
2019-01-27T12:57:19.796Z,8.94
2019-01-27T12:58:19.784Z,8.94
2019-01-27T12:59:21.410Z,9.01
2019-01-27T13:00:19.765Z,8.96
2019-01-27T13:01:19.775Z,8.97
2019-01-27T13:02:19.738Z,8.94
2019-01-27T13:03:19.727Z,9.00
2019-01-27T13:04:19.718Z,8.94
2019-01-27T13:05:19.707Z,8.96
2019-01-27T13:06:19.719Z,8.97
2019-01-27T13:07:19.685Z,8.97
2019-01-27T13:08:19.671Z,8.97
2019-01-27T13:09:19.663Z,9.03
2019-01-27T13:10:19.660Z,9.03
2019-01-27T13:11:19.667Z,9.03
2019-01-27T13:12:19.627Z,9.03
2019-01-27T13:13:19.616Z,9.15
2019-01-27T13:14:19.614Z,9.10
2019-01-27T13:15:19.597Z,9.08
2019-01-27T13:16:19.613Z,9.10
2019-01-27T13:17:19.575Z,9.12
2019-01-27T13:18:19.560Z,9.16